createdAt,value
2023-01-15T00:00:28.612Z,39
2023-01-15T00:01:35.918Z,39
2023-01-15T00:02:42.814Z,40
2023-01-15T00:03:50.153Z,48
2023-01-15T00:04:56.920Z,41
2023-01-15T00:06:04.297Z,43
2023-01-15T00:07:11.313Z,44
2023-01-15T00:08:18.811Z,40
2023-01-15T00:09:26.131Z,35
2023-01-15T00:10:33.312Z,45
2023-01-15T00:11:40.435Z,41
2023-01-15T00:12:47.618Z,33
2023-01-15T00:13:54.817Z,32
2023-01-15T00:15:01.842Z,39
2023-01-15T00:16:09.010Z,34
2023-01-15T00:17:16.088Z,31
2023-01-15T00:18:23.259Z,33
2023-01-15T00:19:31.549Z,32
2023-01-15T00:20:38.662Z,33
2023-01-15T00:21:45.815Z,30
2023-01-15T00:22:52.798Z,32
2023-01-15T00:23:59.955Z,34
2023-01-15T00:25:12.194Z,33
2023-01-15T00:26:24.593Z,33
2023-01-15T00:27:37.613Z,28
2023-01-15T00:28:44.853Z,36
2023-01-15T00:29:52.065Z,29
2023-01-15T00:30:59.000Z,27
2023-01-15T00:32:06.135Z,47
2023-01-15T00:33:13.293Z,25
2023-01-15T00:34:20.420Z,27
2023-01-15T00:35:27.656Z,37
2023-01-15T00:36:34.738Z,47
2023-01-15T00:37:41.960Z,25
2023-01-15T00:38:49.079Z,30
2023-01-15T00:39:56.773Z,34
2023-01-15T00:41:03.793Z,25
2023-01-15T00:42:11.357Z,43
2023-01-15T00:43:18.546Z,42
2023-01-15T00:44:25.664Z,40
2023-01-15T00:45:32.834Z,25
2023-01-15T00:46:40.051Z,36
2023-01-15T00:47:47.292Z,45
2023-01-15T00:48:54.713Z,33
2023-01-15T00:50:01.795Z,29
2023-01-15T00:51:08.924Z,46
2023-01-15T00:52:16.092Z,47
2023-01-15T00:53:23.302Z,42
2023-01-15T00:54:30.543Z,34
2023-01-15T00:55:37.594Z,30
2023-01-15T00:56:44.733Z,45
2023-01-15T00:57:52.104Z,30
2023-01-15T00:58:58.899Z,48
2023-01-15T01:00:06.216Z,34
2023-01-15T01:01:13.852Z,45
2023-01-15T01:02:20.919Z,46
2023-01-15T01:03:28.008Z,30
2023-01-15T01:04:35.167Z,26
2023-01-15T01:05:42.374Z,40
2023-01-15T01:06:49.510Z,25
2023-01-15T01:07:56.557Z,41
2023-01-15T01:09:03.696Z,26
2023-01-15T01:10:11.762Z,46
2023-01-15T01:11:18.944Z,25
2023-01-15T01:12:26.513Z,25
2023-01-15T01:13:34.927Z,51
2023-01-15T01:14:42.044Z,43
2023-01-15T01:15:49.223Z,46
2023-01-15T01:16:56.170Z,35
2023-01-15T01:18:03.348Z,53
2023-01-15T01:19:10.528Z,48
2023-01-15T01:20:17.770Z,33
2023-01-15T01:21:24.867Z,50
2023-01-15T01:22:33.953Z,49
2023-01-15T01:23:41.614Z,27
2023-01-15T01:24:48.904Z,25
2023-01-15T01:25:55.827Z,36
2023-01-15T01:27:03.003Z,25
2023-01-15T01:28:10.437Z,28
2023-01-15T01:29:17.371Z,33
2023-01-15T01:30:24.434Z,39
2023-01-15T01:31:31.654Z,44
2023-01-15T01:32:38.720Z,36
2023-01-15T01:33:48.929Z,45
2023-01-15T01:34:55.906Z,30
2023-01-15T01:36:03.124Z,52
2023-01-15T01:37:10.237Z,45
2023-01-15T01:38:17.382Z,25
2023-01-15T01:39:24.488Z,44
2023-01-15T01:40:31.682Z,39
2023-01-15T01:41:38.829Z,36
2023-01-15T01:42:46.037Z,33
2023-01-15T01:43:53.262Z,47
2023-01-15T01:45:08.247Z,26
2023-01-15T01:46:21.023Z,27
2023-01-15T01:47:28.232Z,46
2023-01-15T01:48:35.446Z,25
2023-01-15T01:49:42.641Z,45
2023-01-15T01:50:49.615Z,47
2023-01-15T01:51:56.592Z,28
2023-01-15T01:53:03.770Z,29
2023-01-15T01:54:10.927Z,43
2023-01-15T01:55:18.122Z,41
2023-01-15T01:56:25.234Z,25
2023-01-15T01:57:32.394Z,34
2023-01-15T01:58:39.801Z,48
2023-01-15T01:59:46.681Z,52
2023-01-15T02:00:53.809Z,49
2023-01-15T02:02:01.050Z,27
2023-01-15T02:03:08.053Z,41
2023-01-15T02:04:16.129Z,25
2023-01-15T02:05:23.386Z,34
2023-01-15T02:06:33.620Z,29
2023-01-15T02:07:40.801Z,44
2023-01-15T02:08:47.871Z,43
2023-01-15T02:09:54.891Z,56
2023-01-15T02:11:02.071Z,56
2023-01-15T02:12:09.462Z,38
2023-01-15T02:13:26.604Z,58
2023-01-15T02:14:38.878Z,55
2023-01-15T02:15:56.537Z,53
2023-01-15T02:17:11.853Z,42
2023-01-15T02:18:21.996Z,57
2023-01-15T02:19:31.771Z,38
2023-01-15T02:20:44.017Z,32
2023-01-15T02:22:01.276Z,40
2023-01-15T02:23:08.376Z,30
2023-01-15T02:24:23.690Z,41
2023-01-15T02:25:35.959Z,48
2023-01-15T02:26:53.293Z,48
2023-01-15T02:28:05.433Z,31
2023-01-15T02:29:15.149Z,48
2023-01-15T02:30:22.273Z,47
2023-01-15T02:31:29.493Z,45
2023-01-15T02:32:41.734Z,34
2023-01-15T02:33:53.907Z,31
2023-01-15T02:35:03.492Z,29
2023-01-15T02:36:18.425Z,49
2023-01-15T02:37:25.543Z,44
2023-01-15T02:38:32.561Z,41
2023-01-15T02:39:39.774Z,34
2023-01-15T02:40:46.945Z,30
2023-01-15T02:41:54.122Z,25
2023-01-15T02:43:01.224Z,36
2023-01-15T02:44:08.343Z,26
2023-01-15T02:45:15.360Z,29
2023-01-15T02:46:22.631Z,30
2023-01-15T02:47:29.677Z,35
2023-01-15T02:48:36.816Z,42
2023-01-15T02:49:44.113Z,36
2023-01-15T02:50:51.272Z,27
2023-01-15T02:52:01.257Z,30
2023-01-15T02:53:10.958Z,38
2023-01-15T02:54:18.100Z,35
2023-01-15T02:55:25.331Z,34
2023-01-15T02:56:32.421Z,29
2023-01-15T02:57:42.178Z,33
2023-01-15T02:58:49.368Z,38
2023-01-15T02:59:56.350Z,27
2023-01-15T03:01:03.554Z,37
2023-01-15T03:02:13.757Z,34
2023-01-15T03:03:23.444Z,37
2023-01-15T03:04:30.504Z,29
2023-01-15T03:05:45.793Z,32
2023-01-15T03:06:53.223Z,34
2023-01-15T03:08:03.195Z,27
2023-01-15T03:09:10.424Z,35
2023-01-15T03:10:17.375Z,29
2023-01-15T03:11:24.505Z,37
2023-01-15T03:12:31.646Z,40
2023-01-15T03:13:41.892Z,35
2023-01-15T03:14:54.117Z,31
2023-01-15T03:16:11.424Z,38
2023-01-15T03:17:26.109Z,32
2023-01-15T03:18:38.351Z,40
2023-01-15T03:19:51.168Z,28
2023-01-15T03:20:58.985Z,28
2023-01-15T03:22:05.271Z,27
2023-01-15T03:23:20.655Z,41
2023-01-15T03:24:27.799Z,41
2023-01-15T03:25:37.480Z,39
2023-01-15T03:26:44.606Z,45
2023-01-15T03:27:51.788Z,41
2023-01-15T03:28:58.709Z,49
2023-01-15T03:30:05.827Z,48
2023-01-15T03:31:18.181Z,55
2023-01-15T03:32:25.324Z,52
2023-01-15T03:33:32.541Z,81
2023-01-15T03:34:39.677Z,67
2023-01-15T03:35:49.804Z,64
2023-01-15T03:36:59.944Z,65
2023-01-15T03:38:07.074Z,72
2023-01-15T03:39:14.168Z,65
2023-01-15T03:40:21.289Z,75
2023-01-15T03:41:28.445Z,81
2023-01-15T03:42:43.745Z,76
2023-01-15T03:43:54.071Z,79
2023-01-15T03:45:06.648Z,69
2023-01-15T03:46:16.415Z,73
2023-01-15T03:47:31.648Z,85
2023-01-15T03:48:43.929Z,81
2023-01-15T03:49:50.964Z,86
2023-01-15T03:51:01.088Z,92
2023-01-15T03:52:16.395Z,90
2023-01-15T03:53:33.644Z,92
2023-01-15T03:54:49.291Z,101
2023-01-15T03:55:56.482Z,98
2023-01-15T03:57:03.657Z,106
2023-01-15T03:58:13.880Z,102
2023-01-15T03:59:23.600Z,105
2023-01-15T04:00:30.744Z,106
2023-01-15T04:01:38.181Z,101
2023-01-15T04:02:45.160Z,100
2023-01-15T04:03:52.276Z,107
2023-01-15T04:04:59.173Z,98
2023-01-15T04:06:06.372Z,94
2023-01-15T04:07:13.496Z,97
2023-01-15T04:08:20.691Z,107
2023-01-15T04:09:27.805Z,104
2023-01-15T04:10:35.379Z,104
2023-01-15T04:11:42.171Z,113
2023-01-15T04:12:49.374Z,108
2023-01-15T04:13:56.271Z,107
2023-01-15T04:15:03.508Z,116
2023-01-15T04:16:11.142Z,120
2023-01-15T04:17:18.352Z,107
2023-01-15T04:18:25.481Z,112
2023-01-15T04:19:32.598Z,111
2023-01-15T04:20:39.816Z,117
2023-01-15T04:21:46.973Z,100
2023-01-15T04:22:54.124Z,106
2023-01-15T04:24:01.269Z,100
2023-01-15T04:25:08.807Z,111
2023-01-15T04:26:15.909Z,106
2023-01-15T04:27:23.040Z,106
2023-01-15T04:28:30.240Z,109
2023-01-15T04:29:37.428Z,108
2023-01-15T04:30:44.665Z,109
2023-01-15T04:31:51.725Z,106
2023-01-15T04:32:58.646Z,112
2023-01-15T04:34:05.752Z,114
2023-01-15T04:35:13.064Z,99
2023-01-15T04:36:20.326Z,112
2023-01-15T04:37:27.243Z,109
2023-01-15T04:38:34.412Z,119
2023-01-15T04:39:41.548Z,113
2023-01-15T04:40:48.768Z,113
2023-01-15T04:42:00.818Z,105
2023-01-15T04:43:16.208Z,111
2023-01-15T04:44:28.490Z,122
2023-01-15T04:45:35.782Z,111
2023-01-15T04:46:42.794Z,128
2023-01-15T04:47:49.869Z,112
2023-01-15T04:48:56.915Z,101
2023-01-15T04:50:04.037Z,107
2023-01-15T04:51:11.350Z,104
2023-01-15T04:52:18.429Z,100
2023-01-15T04:53:25.465Z,106
2023-01-15T04:54:32.596Z,124
2023-01-15T04:55:39.805Z,105
2023-01-15T04:56:46.953Z,118
2023-01-15T04:57:56.948Z,112
2023-01-15T04:59:04.176Z,100
2023-01-15T05:00:11.289Z,92
2023-01-15T05:01:18.403Z,97
2023-01-15T05:02:25.677Z,113
2023-01-15T05:03:32.699Z,92
2023-01-15T05:04:40.022Z,94
2023-01-15T05:05:47.100Z,108
2023-01-15T05:06:54.234Z,105
2023-01-15T05:08:01.170Z,106
2023-01-15T05:09:08.317Z,100
2023-01-15T05:10:15.489Z,88
2023-01-15T05:11:22.708Z,111
2023-01-15T05:12:29.940Z,119
2023-01-15T05:13:36.916Z,98
2023-01-15T05:14:44.109Z,90
2023-01-15T05:15:51.273Z,92
2023-01-15T05:16:58.235Z,81
2023-01-15T05:18:05.547Z,108
2023-01-15T05:19:12.980Z,99
2023-01-15T05:20:19.681Z,85
2023-01-15T05:21:26.783Z,90
2023-01-15T05:22:33.973Z,80
2023-01-15T05:23:41.164Z,92
2023-01-15T05:24:48.364Z,93
2023-01-15T05:25:55.467Z,90
2023-01-15T05:27:02.408Z,74
2023-01-15T05:28:09.594Z,80
2023-01-15T05:29:16.712Z,97
2023-01-15T05:30:23.946Z,98
2023-01-15T05:31:31.080Z,96
2023-01-15T05:32:38.261Z,94
2023-01-15T05:33:45.340Z,94
2023-01-15T05:34:52.470Z,70
2023-01-15T05:35:59.520Z,82
2023-01-15T05:37:09.652Z,76
2023-01-15T05:38:16.865Z,96
2023-01-15T05:39:24.155Z,89
2023-01-15T05:40:31.195Z,74
2023-01-15T05:41:38.334Z,96
2023-01-15T05:42:50.712Z,94
2023-01-15T05:43:58.040Z,76
2023-01-15T05:45:05.229Z,75
2023-01-15T05:46:12.831Z,96
2023-01-15T05:47:19.998Z,78
2023-01-15T05:48:27.339Z,78
2023-01-15T05:49:34.396Z,77
2023-01-15T05:50:41.414Z,80
2023-01-15T05:51:48.612Z,97
2023-01-15T05:52:55.758Z,93
2023-01-15T05:54:02.721Z,76
2023-01-15T05:55:09.948Z,100
2023-01-15T05:56:17.041Z,79
2023-01-15T05:57:24.165Z,100
2023-01-15T05:58:31.331Z,101
2023-01-15T05:59:38.554Z,102
2023-01-15T06:00:45.621Z,98
2023-01-15T06:01:52.953Z,91
2023-01-15T06:03:00.323Z,107
2023-01-15T06:04:07.390Z,85
2023-01-15T06:05:14.601Z,103
2023-01-15T06:06:21.662Z,115
2023-01-15T06:07:28.867Z,110
2023-01-15T06:08:36.116Z,94
2023-01-15T06:09:43.202Z,106
2023-01-15T06:10:50.332Z,113
2023-01-15T06:11:57.404Z,92
2023-01-15T06:13:04.477Z,118
2023-01-15T06:14:11.648Z,119
2023-01-15T06:15:18.816Z,119
2023-01-15T06:16:25.972Z,118
2023-01-15T06:17:33.149Z,121
2023-01-15T06:18:40.275Z,113
2023-01-15T06:19:47.428Z,121
2023-01-15T06:20:54.492Z,121
2023-01-15T06:22:01.709Z,112
2023-01-15T06:23:08.736Z,120
2023-01-15T06:24:15.757Z,121
2023-01-15T06:25:22.882Z,118
2023-01-15T06:26:30.040Z,118
2023-01-15T06:27:37.234Z,120
2023-01-15T06:28:44.337Z,115
2023-01-15T06:29:51.561Z,98
2023-01-15T06:30:58.499Z,126
2023-01-15T06:32:05.603Z,120
2023-01-15T06:33:12.841Z,121
2023-01-15T06:34:19.969Z,113
2023-01-15T06:35:27.106Z,118
2023-01-15T06:36:34.176Z,119
2023-01-15T06:37:41.414Z,123
2023-01-15T06:38:48.496Z,105
2023-01-15T06:39:55.658Z,117
2023-01-15T06:41:02.843Z,120
2023-01-15T06:42:09.848Z,126
2023-01-15T06:43:22.089Z,116
2023-01-15T06:44:34.311Z,121
2023-01-15T06:45:46.498Z,118
2023-01-15T06:46:58.674Z,116
2023-01-15T06:48:15.996Z,115
2023-01-15T06:49:23.302Z,116
2023-01-15T06:50:30.320Z,118
2023-01-15T06:51:37.417Z,96
2023-01-15T06:52:44.540Z,112
2023-01-15T06:53:51.674Z,125
2023-01-15T06:54:58.718Z,101
2023-01-15T06:56:05.956Z,116
2023-01-15T06:57:13.248Z,119
2023-01-15T06:58:20.708Z,121
2023-01-15T06:59:27.822Z,123
2023-01-15T07:00:35.068Z,96
2023-01-15T07:01:42.139Z,100
2023-01-15T07:02:49.370Z,114
2023-01-15T07:03:56.713Z,114
2023-01-15T07:05:03.473Z,105
2023-01-15T07:06:10.545Z,113
2023-01-15T07:07:17.715Z,112
2023-01-15T07:08:24.892Z,87
2023-01-15T07:09:32.249Z,107
2023-01-15T07:10:39.216Z,118
2023-01-15T07:11:46.309Z,114
2023-01-15T07:12:53.550Z,96
2023-01-15T07:14:00.985Z,113
2023-01-15T07:15:10.661Z,100
2023-01-15T07:16:17.842Z,92
2023-01-15T07:17:30.032Z,87
2023-01-15T07:18:37.289Z,116
2023-01-15T07:19:44.403Z,85
2023-01-15T07:20:51.544Z,93
2023-01-15T07:21:58.445Z,110
2023-01-15T07:23:05.610Z,110
2023-01-15T07:24:12.810Z,90
2023-01-15T07:25:19.892Z,110
2023-01-15T07:26:27.317Z,99
2023-01-15T07:27:34.198Z,109
2023-01-15T07:28:41.329Z,116
2023-01-15T07:29:48.375Z,108
2023-01-15T07:30:55.568Z,115
2023-01-15T07:32:02.703Z,120
2023-01-15T07:33:09.800Z,113
2023-01-15T07:34:16.904Z,127
2023-01-15T07:35:24.036Z,100
2023-01-15T07:36:31.196Z,121
2023-01-15T07:37:38.365Z,114
2023-01-15T07:38:45.552Z,127
2023-01-15T07:39:52.892Z,119
2023-01-15T07:41:00.097Z,129
2023-01-15T07:42:12.564Z,126
2023-01-15T07:43:24.868Z,128
2023-01-15T07:44:36.840Z,112
2023-01-15T07:45:49.165Z,111
2023-01-15T07:47:01.250Z,116
2023-01-15T07:48:16.639Z,117
2023-01-15T07:49:28.782Z,115
2023-01-15T07:50:40.995Z,117
2023-01-15T07:51:48.255Z,109
2023-01-15T07:52:55.504Z,107
2023-01-15T07:54:02.532Z,108
2023-01-15T07:55:09.489Z,109
2023-01-15T07:56:16.638Z,107
2023-01-15T07:57:23.834Z,99
2023-01-15T07:58:30.998Z,103
2023-01-15T07:59:38.217Z,103
2023-01-15T08:00:45.525Z,100
2023-01-15T08:01:52.729Z,105
2023-01-15T08:02:59.420Z,96
2023-01-15T08:04:06.672Z,99
2023-01-15T08:05:16.822Z,94
2023-01-15T08:06:23.910Z,98
2023-01-15T08:07:31.097Z,93
2023-01-15T08:08:41.296Z,94
2023-01-15T08:09:48.515Z,95
2023-01-15T08:10:55.667Z,93
2023-01-15T08:12:08.283Z,89
2023-01-15T08:13:20.376Z,86
2023-01-15T08:14:32.689Z,87
2023-01-15T08:15:44.916Z,89
2023-01-15T08:16:52.004Z,84
2023-01-15T08:17:59.076Z,82
2023-01-15T08:19:06.223Z,79
2023-01-15T08:20:13.651Z,79
2023-01-15T08:21:20.441Z,76
2023-01-15T08:22:27.607Z,79
2023-01-15T08:23:34.762Z,78
2023-01-15T08:24:41.912Z,76
2023-01-15T08:25:49.284Z,73
2023-01-15T08:26:56.346Z,75
2023-01-15T08:28:03.634Z,69
2023-01-15T08:29:10.806Z,61
2023-01-15T08:30:17.998Z,58
2023-01-15T08:31:25.262Z,67
2023-01-15T08:32:32.545Z,67
2023-01-15T08:33:39.882Z,65
2023-01-15T08:34:46.710Z,60
2023-01-15T08:35:54.169Z,58
2023-01-15T08:37:01.394Z,63
2023-01-15T08:38:08.454Z,54
2023-01-15T08:39:15.771Z,52
2023-01-15T08:40:22.903Z,50
2023-01-15T08:41:29.943Z,49
2023-01-15T08:42:37.126Z,49
2023-01-15T08:43:44.238Z,48
2023-01-15T08:44:51.467Z,46
2023-01-15T08:45:58.862Z,29
2023-01-15T08:47:06.167Z,33
2023-01-15T08:48:13.207Z,37
2023-01-15T08:49:20.463Z,48
2023-01-15T08:50:27.517Z,44
2023-01-15T08:51:34.679Z,54
2023-01-15T08:52:42.055Z,32
2023-01-15T08:53:49.844Z,35
2023-01-15T08:54:57.134Z,50
2023-01-15T08:56:04.137Z,35
2023-01-15T08:57:16.193Z,47
2023-01-15T08:58:23.471Z,45
2023-01-15T08:59:33.583Z,45
2023-01-15T09:00:40.830Z,43
2023-01-15T09:01:48.171Z,40
2023-01-15T09:02:55.131Z,43
2023-01-15T09:04:02.109Z,47
2023-01-15T09:05:10.350Z,35
2023-01-15T09:06:17.384Z,45
2023-01-15T09:07:24.637Z,39
2023-01-15T09:08:31.704Z,29
2023-01-15T09:09:38.915Z,30
2023-01-15T09:10:46.032Z,38
2023-01-15T09:11:53.231Z,25
2023-01-15T09:13:00.114Z,56
2023-01-15T09:14:07.230Z,53
2023-01-15T09:15:14.435Z,37
2023-01-15T09:16:21.621Z,36
2023-01-15T09:17:28.945Z,29
2023-01-15T09:18:36.165Z,45
2023-01-15T09:19:43.015Z,39
2023-01-15T09:20:50.208Z,29
2023-01-15T09:21:57.305Z,29
2023-01-15T09:23:04.507Z,25
2023-01-15T09:24:11.481Z,34
2023-01-15T09:25:18.582Z,27
2023-01-15T09:26:25.694Z,29
2023-01-15T09:27:32.870Z,26
2023-01-15T09:28:40.022Z,36
2023-01-15T09:29:47.206Z,28
2023-01-15T09:30:54.433Z,29
2023-01-15T09:32:01.716Z,37
2023-01-15T09:33:08.875Z,46
2023-01-15T09:34:16.062Z,32
2023-01-15T09:35:23.231Z,41
2023-01-15T09:36:30.301Z,41
2023-01-15T09:37:37.496Z,40
2023-01-15T09:38:44.658Z,31
2023-01-15T09:39:51.810Z,59
2023-01-15T09:40:58.965Z,41
2023-01-15T09:42:05.886Z,25
2023-01-15T09:43:15.574Z,33
2023-01-15T09:44:27.794Z,47
2023-01-15T09:45:40.121Z,33
2023-01-15T09:46:47.206Z,31
2023-01-15T09:47:59.325Z,48
2023-01-15T09:49:11.684Z,27
2023-01-15T09:50:24.064Z,28
2023-01-15T09:51:39.762Z,44
2023-01-15T09:52:57.023Z,45
2023-01-15T09:54:12.167Z,54
2023-01-15T09:55:21.922Z,34
2023-01-15T09:56:29.046Z,25
2023-01-15T09:57:36.446Z,25
2023-01-15T09:58:43.608Z,53
2023-01-15T09:59:50.506Z,53
2023-01-15T10:00:57.759Z,25
2023-01-15T10:02:04.698Z,38
2023-01-15T10:03:16.998Z,25
2023-01-15T10:04:29.265Z,57
2023-01-15T10:05:41.457Z,44
2023-01-15T10:06:48.764Z,31
2023-01-15T10:07:55.717Z,35
2023-01-15T10:09:08.107Z,33
2023-01-15T10:10:18.014Z,34
2023-01-15T10:11:22.606Z,36
2023-01-15T10:12:32.878Z,37
2023-01-15T10:13:39.971Z,72
2023-01-15T10:14:52.742Z,52
2023-01-15T10:16:10.089Z,46
2023-01-15T10:17:17.368Z,59
2023-01-15T10:18:32.446Z,49
2023-01-15T10:19:44.536Z,65
2023-01-15T10:20:46.797Z,65
2023-01-15T10:21:58.964Z,54
2023-01-15T10:23:14.656Z,57
2023-01-15T10:24:31.966Z,72
2023-01-15T10:25:42.271Z,55
2023-01-15T10:26:54.410Z,73
2023-01-15T10:28:01.401Z,73
2023-01-15T10:29:11.130Z,71
2023-01-15T10:30:21.333Z,73
2023-01-15T10:31:36.625Z,52
2023-01-15T10:33:01.358Z,67
2023-01-15T10:33:59.142Z,74
2023-01-15T10:35:14.226Z,71
2023-01-15T10:36:31.666Z,70
2023-01-15T10:37:46.429Z,85
2023-01-15T10:39:04.060Z,92
2023-01-15T10:40:21.417Z,93
2023-01-15T10:41:38.902Z,95
2023-01-15T10:42:56.165Z,95
2023-01-15T10:44:13.921Z,86
2023-01-15T10:45:28.553Z,94
2023-01-15T10:46:38.537Z,95
2023-01-15T10:47:45.437Z,95
2023-01-15T10:48:52.709Z,96
2023-01-15T10:49:59.746Z,93
2023-01-15T10:51:06.689Z,106
2023-01-15T10:52:16.439Z,100
2023-01-15T10:53:26.551Z,83
2023-01-15T10:54:38.930Z,88
2023-01-15T10:55:46.005Z,101
2023-01-15T10:57:01.161Z,82
2023-01-15T10:58:10.464Z,82
2023-01-15T10:59:18.546Z,91
2023-01-15T11:00:38.865Z,99
2023-01-15T11:01:46.199Z,88
2023-01-15T11:02:56.208Z,75
2023-01-15T11:04:06.332Z,82
2023-01-15T11:05:16.596Z,63
2023-01-15T11:06:23.587Z,73
2023-01-15T11:07:30.749Z,76
2023-01-15T11:09:07.711Z,75
2023-01-15T11:09:55.309Z,70
2023-01-15T11:11:02.402Z,80
2023-01-15T11:12:17.718Z,80
2023-01-15T11:13:29.931Z,77
2023-01-15T11:14:42.202Z,83
2023-01-15T11:15:54.502Z,92
2023-01-15T11:17:06.628Z,82
2023-01-15T11:18:18.957Z,94
2023-01-15T11:19:30.954Z,90
2023-01-15T11:20:41.125Z,84
2023-01-15T11:21:48.281Z,81
2023-01-15T11:22:55.500Z,86
2023-01-15T11:24:02.541Z,84
2023-01-15T11:25:10.132Z,92
2023-01-15T11:26:17.253Z,94
2023-01-15T11:27:27.550Z,81
2023-01-15T11:28:34.698Z,87
2023-01-15T11:29:41.853Z,94
2023-01-15T11:30:48.937Z,87
2023-01-15T11:31:59.267Z,83
2023-01-15T11:33:06.340Z,84
2023-01-15T11:34:23.596Z,84
2023-01-15T11:35:30.681Z,71
2023-01-15T11:36:37.939Z,87
2023-01-15T11:37:45.244Z,77
2023-01-15T11:38:52.169Z,76
2023-01-15T11:39:59.310Z,91
2023-01-15T11:41:06.262Z,73
2023-01-15T11:42:23.753Z,80
2023-01-15T11:43:35.900Z,81
2023-01-15T11:44:48.082Z,90
2023-01-15T11:46:00.487Z,87
2023-01-15T11:47:20.124Z,85
2023-01-15T11:48:29.913Z,89
2023-01-15T11:49:47.255Z,86
2023-01-15T11:50:59.589Z,79
2023-01-15T11:52:12.597Z,98
2023-01-15T11:53:25.233Z,93
2023-01-15T11:54:32.434Z,94
2023-01-15T11:55:44.737Z,96
2023-01-15T11:56:57.000Z,98
2023-01-15T11:58:03.986Z,103
2023-01-15T11:59:11.041Z,101
2023-01-15T12:00:20.703Z,103
2023-01-15T12:01:33.094Z,106
2023-01-15T12:02:40.092Z,109
2023-01-15T12:03:49.913Z,111
2023-01-15T12:04:56.922Z,109
2023-01-15T12:06:04.049Z,115
2023-01-15T12:07:11.259Z,106
2023-01-15T12:08:18.335Z,111
2023-01-15T12:09:28.586Z,113
2023-01-15T12:10:38.753Z,106
2023-01-15T12:11:54.006Z,116
2023-01-15T12:13:08.673Z,111
2023-01-15T12:14:18.386Z,108
2023-01-15T12:15:35.768Z,115
2023-01-15T12:16:48.001Z,115
2023-01-15T12:18:05.260Z,119
2023-01-15T12:19:22.526Z,116
2023-01-15T12:20:39.949Z,115
2023-01-15T12:21:52.227Z,121
2023-01-15T12:23:09.007Z,115
2023-01-15T12:24:22.651Z,115
2023-01-15T12:25:34.846Z,121
2023-01-15T12:26:42.119Z,123
2023-01-15T12:27:51.804Z,116
2023-01-15T12:28:59.032Z,112
2023-01-15T12:30:08.995Z,115
2023-01-15T12:31:21.206Z,123
2023-01-15T12:32:28.251Z,112
2023-01-15T12:33:35.408Z,112
2023-01-15T12:34:42.614Z,114
2023-01-15T12:36:00.122Z,118
2023-01-15T12:37:07.424Z,118
2023-01-15T12:38:20.122Z,117
2023-01-15T12:39:32.419Z,117
2023-01-15T12:40:44.635Z,111
2023-01-15T12:41:51.907Z,112
2023-01-15T12:43:09.541Z,121
2023-01-15T12:44:21.728Z,131
2023-01-15T12:45:44.326Z,116
2023-01-15T12:46:51.342Z,120
2023-01-15T12:47:58.531Z,118
2023-01-15T12:49:16.139Z,119
2023-01-15T12:50:25.797Z,122
2023-01-15T12:51:32.994Z,113
2023-01-15T12:52:48.355Z,115
2023-01-15T12:53:55.421Z,117
2023-01-15T12:55:07.501Z,121
2023-01-15T12:56:19.764Z,127
2023-01-15T12:57:32.211Z,125
2023-01-15T12:58:39.253Z,129
2023-01-15T12:59:51.447Z,119
2023-01-15T13:00:58.868Z,112
2023-01-15T13:02:13.777Z,117
2023-01-15T13:03:20.957Z,118
2023-01-15T13:04:31.116Z,111
2023-01-15T13:05:38.250Z,105
2023-01-15T13:06:50.597Z,122
2023-01-15T13:07:57.543Z,124
2023-01-15T13:09:12.760Z,128
2023-01-15T13:10:22.498Z,130
2023-01-15T13:11:32.248Z,118
2023-01-15T13:12:39.293Z,116
2023-01-15T13:13:46.508Z,113
2023-01-15T13:14:53.859Z,113
2023-01-15T13:16:00.819Z,117
2023-01-15T13:17:10.875Z,110
2023-01-15T13:18:23.442Z,119
2023-01-15T13:19:30.296Z,114
2023-01-15T13:20:42.624Z,120
2023-01-15T13:21:52.418Z,122
2023-01-15T13:22:59.483Z,122
2023-01-15T13:24:12.085Z,126
2023-01-15T13:25:29.825Z,135
2023-01-15T13:26:36.506Z,128
2023-01-15T13:27:51.771Z,133
2023-01-15T13:29:07.063Z,136
2023-01-15T13:30:19.231Z,136
2023-01-15T13:31:31.747Z,130
2023-01-15T13:32:46.781Z,139
2023-01-15T13:33:54.076Z,136
2023-01-15T13:35:01.170Z,135
2023-01-15T13:36:16.780Z,150
2023-01-15T13:37:29.019Z,140
2023-01-15T13:38:39.891Z,139
2023-01-15T13:39:47.787Z,130
2023-01-15T13:40:55.327Z,131
2023-01-15T13:42:02.679Z,123
2023-01-15T13:43:15.001Z,112
2023-01-15T13:44:27.117Z,112
2023-01-15T13:45:34.280Z,121
2023-01-15T13:46:46.530Z,118
2023-01-15T13:48:03.715Z,115
2023-01-15T13:49:16.475Z,116
2023-01-15T13:50:26.664Z,97
2023-01-15T13:51:39.226Z,106
2023-01-15T13:52:46.062Z,107
2023-01-15T13:53:53.482Z,109
2023-01-15T13:55:00.467Z,113
2023-01-15T13:56:17.611Z,106
2023-01-15T13:57:30.079Z,124
2023-01-15T13:58:40.023Z,106
2023-01-15T13:59:55.413Z,106
2023-01-15T14:01:02.510Z,103
2023-01-15T14:02:11.983Z,103
2023-01-15T14:03:27.346Z,110
2023-01-15T14:04:34.565Z,104
2023-01-15T14:05:41.715Z,113
2023-01-15T14:06:48.876Z,114
2023-01-15T14:07:55.994Z,106
2023-01-15T14:09:02.898Z,109
2023-01-15T14:10:11.155Z,104
2023-01-15T14:11:20.764Z,100
2023-01-15T14:12:38.810Z,99
2023-01-15T14:13:54.778Z,99
2023-01-15T14:15:10.167Z,106
2023-01-15T14:16:24.999Z,102
2023-01-15T14:17:40.372Z,95
2023-01-15T14:18:57.647Z,100
2023-01-15T14:20:12.741Z,103
2023-01-15T14:21:28.206Z,110
2023-01-15T14:22:40.875Z,109
2023-01-15T14:23:53.651Z,100
2023-01-15T14:25:08.922Z,99
2023-01-15T14:26:22.068Z,92
2023-01-15T14:27:39.427Z,100
2023-01-15T14:28:54.724Z,111
2023-01-15T14:30:09.952Z,101
2023-01-15T14:31:20.618Z,101
2023-01-15T14:32:37.872Z,103
2023-01-15T14:33:55.304Z,103
2023-01-15T14:35:02.491Z,105
2023-01-15T14:36:09.390Z,103
2023-01-15T14:37:22.171Z,94
2023-01-15T14:38:34.393Z,110
2023-01-15T14:39:41.510Z,100
2023-01-15T14:40:54.382Z,91
2023-01-15T14:42:04.539Z,102
2023-01-15T14:43:19.677Z,101
2023-01-15T14:44:26.786Z,97
2023-01-15T14:45:33.965Z,96
2023-01-15T14:46:44.290Z,98
2023-01-15T14:47:51.361Z,105
2023-01-15T14:48:58.318Z,107
2023-01-15T14:50:05.644Z,103
2023-01-15T14:51:23.098Z,107
2023-01-15T14:52:33.427Z,102
2023-01-15T14:53:40.724Z,107
2023-01-15T14:54:48.266Z,109
2023-01-15T14:55:55.484Z,122
2023-01-15T14:57:05.481Z,109
2023-01-15T14:58:12.650Z,102
2023-01-15T14:59:28.192Z,100
2023-01-15T15:00:40.691Z,95
2023-01-15T15:01:48.296Z,97
2023-01-15T15:02:55.070Z,108
2023-01-15T15:04:02.169Z,113
2023-01-15T15:05:14.750Z,107
2023-01-15T15:06:21.819Z,98
2023-01-15T15:07:29.241Z,99
2023-01-15T15:08:38.976Z,102
2023-01-15T15:09:45.862Z,102
2023-01-15T15:10:58.026Z,111
2023-01-15T15:12:05.119Z,107
2023-01-15T15:13:22.584Z,103
2023-01-15T15:14:33.551Z,111
2023-01-15T15:15:41.642Z,107
2023-01-15T15:16:51.603Z,104
2023-01-15T15:17:58.898Z,98
2023-01-15T15:19:17.698Z,108
2023-01-15T15:20:29.730Z,128
2023-01-15T15:21:47.430Z,121
2023-01-15T15:22:54.595Z,119
2023-01-15T15:24:11.916Z,132
2023-01-15T15:25:26.696Z,131
2023-01-15T15:26:34.641Z,134
2023-01-15T15:27:42.082Z,131
2023-01-15T15:28:49.158Z,132
2023-01-15T15:29:58.758Z,141
2023-01-15T15:31:09.382Z,141
2023-01-15T15:32:17.545Z,151
2023-01-15T15:33:24.666Z,139
2023-01-15T15:34:36.806Z,145
2023-01-15T15:35:43.971Z,158
2023-01-15T15:36:51.094Z,162
2023-01-15T15:37:58.483Z,173
2023-01-15T15:39:06.760Z,170
2023-01-15T15:40:24.317Z,159
2023-01-15T15:41:36.405Z,177
2023-01-15T15:42:48.654Z,172
2023-01-15T15:44:09.075Z,188
2023-01-15T15:45:21.230Z,199
2023-01-15T15:46:33.407Z,198
2023-01-15T15:47:45.777Z,197
2023-01-15T15:49:01.405Z,198
2023-01-15T15:50:08.561Z,192
2023-01-15T15:51:26.024Z,200
2023-01-15T15:52:39.067Z,205
2023-01-15T15:53:46.092Z,203
2023-01-15T15:54:53.495Z,199
2023-01-15T15:56:06.190Z,186
2023-01-15T15:57:13.643Z,203
2023-01-15T15:58:20.761Z,183
2023-01-15T15:59:38.152Z,177
2023-01-15T16:00:52.909Z,169
2023-01-15T16:02:00.209Z,175
2023-01-15T16:03:12.134Z,149
2023-01-15T16:04:27.206Z,138
2023-01-15T16:05:34.523Z,158
2023-01-15T16:06:41.662Z,158
2023-01-15T16:07:48.954Z,158
2023-01-15T16:08:55.930Z,153
2023-01-15T16:10:03.112Z,133
2023-01-15T16:11:20.404Z,128